Tiempo atmosférico en la estación meteorológica de Capdepera, Illes Balears (57 m.)



Fecha
DESCASC
Temp. máxima en grados centígrados (hora)
DESCASC
Temp. mínima en grados centígrados (hora)
DESCASC
Temp. media en grados centígrados
DESCASC
Racha de viento máxima en m/sg (hora)
DESCASC
Velocidad máxima media en intervalos de 10 minutos(hora)
DESCASC
Precipitaciones diarias en mm
DESCASC
Precipitaciones de 00:00 a 06:00 en mm
DESCASC
Precipitaciones de 06:00 a 12:00 en mm
DESCASC
Precipitaciones de 12:00 a 18:00 en mm
DESCASC
Precipitaciones de 18:00 a 24:00 en mm
DESCASC
13-08-2019 25.1 (17:50) 22.9 (00:00) 24 18.61 (05:40) 14.44 (08:30) 0.2 0.1 0.1 0 0
10-08-2019 31.5 (13:20) 25.5 (00:00) 28.5 11.11 (10:00) 9.17 (10:10) 0 0 0 0 0
24-08-2019 30 (14:50) 23.7 (00:00) 26.9 6.94 (16:40) 5.83 (16:50) 0 0 0 0 0
23-08-2019 28.9 (13:00) 23.1 (00:00) 26 11.39 (07:10) 9.72 (07:10) 0 0 0 0 0
22-08-2019 27.7 (13:00) 23.7 (00:00) 25.7 14.17 (12:10) 11.94 (14:10) 0 0 0 0 0
21-08-2019 26.6 (14:30) 22.8 (00:00) 24.7 15 (03:00) 11.11 (00:40) 0 0 0 0 0
20-08-2019 29.2 (13:30) 23.1 (00:00) 26.2 17.78 (17:20) 14.17 (17:30) 0 0 0 0 0
19-08-2019 30.5 (14:10) 24.9 (00:00) 27.7 8.06 (00:10) 7.22 (16:00) 0 0 0 0 0
18-08-2019 30.9 (14:10) 25.1 (00:00) 28 9.17 (23:20) 7.78 (03:10) 0 0 0 0 0
17-08-2019 31.2 (15:20) 23.8 (00:00) 27.5 8.61 (16:10) 7.5 (16:20) 0 0 0 0 0
16-08-2019 29.9 (16:20) 24.1 (00:00) 27 8.33 (01:10) 6.67 (01:20) 0 0 0 0 0
15-08-2019 30.3 (14:40) 22.7 (00:00) 26.5 9.17 (16:10) 7.78 (16:00) 0 0 0 0 0
14-08-2019 29.9 (12:50) 21.6 (00:00) 25.8 9.44 (17:30) 7.5 (16:10) 0 0 0 0 0
12-08-2019 26.8 (10:40) 24.5 (00:00) 25.6 16.11 (07:10) 13.89 (07:10) 0 0 0 0 0
11-08-2019 31.3 (15:00) 26 (00:00) 28.6 10.28 (14:20) 7.5 (13:50) 0 0 0 0 0
26-07-2019 31.4 (13:20) 25.1 (00:00) 28.3 8.06 (15:30) 6.67 (14:00) 0 0 0 0 0
09-08-2019 28.9 (16:00) 24.3 (00:00) 26.6 12.78 (16:30) 10.83 (16:30) 0 0 0 0 0
08-08-2019 31.9 (14:10) 24.8 (00:00) 28.3 8.89 (15:30) 7.78 (15:30) 0 0 0 0 0
07-08-2019 31.7 (13:30) 24.1 (00:00) 27.9 8.89 (11:00) 5.83 (10:30) 0 0 0 0 0
06-08-2019 31.8 (15:30) 24.8 (00:00) 28.3 8.33 (15:40) 6.67 (16:30) 0 0 0 0 0
05-08-2019 31.2 (13:00) 24.6 (00:00) 27.9 6.67 (14:50) 6.11 (14:50) 0 0 0 0 0
04-08-2019 32.6 (15:00) 24.8 (00:00) 28.7 6.67 (07:20) 5.56 (07:10) 0 0 0 0 0
03-08-2019 30.8 (13:50) 24 (00:00) 27.4 9.44 (08:40) 6.94 (08:20) 0 0 0 0 0
02-08-2019 29.5 (14:30) 24.2 (00:00) 26.9 12.5 (07:00) 10.56 (07:50) 0 0 0 0 0
01-08-2019 29.9 (12:40) 23.8 (00:00) 26.8 10.28 (04:30) 8.61 (04:30) 0 0 0 0 0
31-07-2019 27.4 (15:10) 23.6 (00:00) 25.5 13.61 (14:30) 10.83 (08:00) 0 0 0 0 0
29-07-2019 29.1 (15:20) 21.9 (00:00) 25.5 13.61 (17:10) 10.83 (17:00) -- 0 0 -- 0
28-07-2019 28.5 (11:00) 22.4 (00:00) 25.4 13.89 (01:20) 10.28 (02:30) 6.9 0 0 6.9 0
27-07-2019 30.9 (15:20) 24.2 (00:00) 27.6 16.39 (19:10) 10.56 (19:10) 0 0 0 0 0
30-07-2019 -- (--) -- (--) -- -- (--) -- (--) -- 0 -- 0 0

Gráficas

Temp. máximas Temp. mínimas Temp. medias Precipitaciones Rachas de viento máximas Velocidades máximas media en intervalos de 10 minutos

Datos horarios

Fecha y hora oficial Temperatura (ºC) Velocidad del viento (km/h) Dirección del viento Racha (km/h) Dirección de racha Precipitación (mm) Presión (hPa) Tendencia (hPa) Humedad (%)
2019-08-24 23:00:00 25 7 Sur 13 Sur 0 -- -- 83
2019-08-24 22:00:00 25.2 7 Sur 13 Sur 0 -- -- 81
2019-08-24 21:00:00 25.6 9 Sur 14 Sur 0 -- -- 78
2019-08-24 20:00:00 26.3 12 Sudeste 15 Sudeste 0 -- -- 76
2019-08-24 19:00:00 26.9 8 Norte 21 Norte 0 -- -- 75
2019-08-24 18:00:00 27.9 19 Norte 25 Norte 0 -- -- 69
2019-08-24 17:00:00 28.9 21 Norte 25 Noroeste 0 -- -- 67
2019-08-24 16:00:00 29.5 19 Norte 24 Noroeste 0 -- -- 65
2019-08-24 15:00:00 29.6 19 Norte 24 Norte 0 -- -- 62
2019-08-24 14:00:00 29.6 16 Norte 21 Norte 0 -- -- 63
2019-08-24 13:00:00 29.2 16 Norte 20 Noroeste 0 -- -- 66
2019-08-24 12:00:00 28 15 Norte 18 Norte 0 -- -- 70
2019-08-24 11:00:00 26.9 14 Norte 19 Norte 0 -- -- 75
2019-08-24 10:00:00 27.2 13 Norte 21 Norte 0 -- -- 75
2019-08-24 09:00:00 26 15 Norte 18 Norte 0 -- -- 76
2019-08-24 08:00:00 24.5 14 Norte 19 Norte 0 -- -- 86
2019-08-24 07:00:00 23.9 10 Norte 15 Norte 0 -- -- 88
2019-08-24 06:00:00 23.9 6 Norte 10 Noroeste 0 -- -- 89
2019-08-24 05:00:00 24.2 3 Este 7 Este 0 -- -- 89
2019-08-24 04:00:00 24.3 5 Sudeste 16 Este 0 -- -- 89
2019-08-24 03:00:00 24.5 11 Nordeste 16 Nordeste 0 -- -- 90
2019-08-24 02:00:00 24.6 12 Este 18 Este 0 -- -- 90
2019-08-24 01:00:00 24.8 9 Sudeste 15 Este 0 -- -- 87
2019-08-24 00:00:00 24.9 12 Sudeste 17 Sudeste 0 -- -- 87
2019-08-23 23:00:00 25.4 16 Sudeste 18 Sudeste 0 -- -- 88
2019-08-23 22:00:00 25.3 14 Norte 22 Norte 0 -- -- 88
2019-08-23 21:00:00 25.1 15 Norte 20 Norte 0 -- -- 83
2019-08-23 20:00:00 25.3 15 Norte 22 Norte 0 -- -- 82
2019-08-23 19:00:00 25.3 18 Norte 23 Norte 0 -- -- 80
2019-08-23 18:00:00 26.1 17 Norte 23 Norte 0 -- -- 79
2019-08-23 17:00:00 28.2 16 Norte 23 Norte 0 -- -- 71
2019-08-23 16:00:00 26.6 17 Norte 23 Norte 0 -- -- 76
2019-08-23 15:00:00 26.8 16 Norte 20 Norte 0 -- -- 74
2019-08-23 14:00:00 27.2 13 Norte 23 Norte 0 -- -- 71
2019-08-23 13:00:00 28.2 13 Norte 23 Norte 0 -- -- 67
2019-08-23 12:00:00 28.3 16 Norte 22 Noroeste 0 -- -- 67
2019-08-23 11:00:00 27.1 12 Norte 22 Norte 0 -- -- 69
2019-08-23 10:00:00 26.2 19 Norte 30 Norte 0 -- -- 69
2019-08-23 09:00:00 25.3 22 Norte 34 Norte 0 -- -- 78
2019-08-23 08:00:00 24 31 Norte 41 Norte 0 -- -- 81
2019-08-23 07:00:00 23.5 35 Norte 40 Norte 0 -- -- 79
2019-08-23 06:00:00 23.3 28 Norte 35 Norte 0 -- -- 79
2019-08-23 05:00:00 23.2 29 Norte 39 Norte 0 -- -- 78
2019-08-23 04:00:00 23.4 28 Norte 37 Norte 0 -- -- 78
2019-08-23 03:00:00 23.5 30 Norte 34 Norte 0 -- -- 76
2019-08-23 02:00:00 23.8 28 Norte 33 Norte 0 -- -- 73
2019-08-23 01:00:00 23.9 26 Norte 33 Norte 0 -- -- 70
2019-08-23 00:00:00 24 27 Norte 36 Norte 0 -- -- 68
2019-08-22 23:00:00 24.1 31 Norte 39 Norte 0 -- -- 66
2019-08-22 22:00:00 24.2 28 Norte 35 Norte 0 -- -- 65
2019-08-22 21:00:00 24.3 27 Norte 34 Noroeste 0 -- -- 64
2019-08-22 20:00:00 24.6 28 Norte 37 Noroeste 0 -- -- 63
2019-08-22 19:00:00 25 29 Norte 37 Norte 0 -- -- 62
2019-08-22 18:00:00 26.3 32 Norte 41 Norte 0 -- -- 57
2019-08-22 17:00:00 26.6 35 Norte 44 Norte 0 -- -- 59
2019-08-22 16:00:00 26.7 40 Norte 48 Norte 0 -- -- 57
2019-08-22 15:00:00 27.3 42 Norte 50 Norte 0 -- -- 55
2019-08-22 14:00:00 27.3 41 Norte 51 Norte 0 -- -- 55
2019-08-22 13:00:00 27.4 39 Norte 51 Norte 0 -- -- 54
2019-08-22 12:00:00 26.8 38 Norte 46 Norte 0 -- -- 61
2019-08-22 11:00:00 25.8 36 Norte 44 Norte 0 -- -- 68
2019-08-22 10:00:00 25.9 30 Norte 35 Norte 0 -- -- 66
2019-08-22 09:00:00 25.2 30 Norte 36 Norte 0 -- -- 65
2019-08-22 08:00:00 24.6 33 Norte 41 Norte 0 -- -- 65
2019-08-22 07:00:00 24.1 32 Norte 43 Norte 0 -- -- 70
2019-08-22 06:00:00 24.2 35 Norte 44 Norte 0 -- -- 63
2019-08-22 05:00:00 24.2 35 Norte 42 Norte 0 -- -- 63
2019-08-22 04:00:00 24.2 32 Norte 42 Norte 0 -- -- 61
2019-08-22 03:00:00 24.1 35 Norte 44 Norte 0 -- -- 61
2019-08-22 02:00:00 24.2 35 Norte 45 Norte 0 -- -- 58
2019-08-22 01:00:00 24 35 Norte 44 Norte 0 -- -- 61
2019-08-22 00:00:00 23.7 30 Norte 36 Norte 0 -- -- 63
2019-08-21 23:00:00 23.6 24 Norte 33 Norte 0 -- -- 63
2019-08-21 22:00:00 23.6 23 Norte 32 Norte 0 -- -- 63
2019-08-21 21:00:00 23.6 26 Norte 34 Norte 0 -- -- 63
2019-08-21 20:00:00 23.8 24 Norte 32 Norte 0 -- -- 63
2019-08-21 19:00:00 24.4 23 Norte 30 Norte 0 -- -- 60
2019-08-21 18:00:00 25.1 23 Norte 29 Norte 0 -- -- 60
2019-08-21 17:00:00 24.8 22 Norte 31 Nordeste 0 -- -- 61
2019-08-21 16:00:00 25.5 20 Norte 31 Nordeste 0 -- -- 59
2019-08-21 15:00:00 25.2 21 Norte 30 Norte 0 -- -- 57
2019-08-21 14:00:00 25.3 24 Norte 31 Norte 0 -- -- 57
2019-08-21 13:00:00 25.8 24 Norte 36 Nordeste 0 -- -- 56
2019-08-21 12:00:00 25 26 Norte 37 Nordeste 0 -- -- 59
2019-08-21 11:00:00 25.4 28 Nordeste 36 Nordeste 0 -- -- 57
2019-08-21 10:00:00 24.1 29 Norte 41 Nordeste 0 -- -- 63
2019-08-21 09:00:00 23.9 29 Norte 42 Nordeste 0 -- -- 63
2019-08-21 08:00:00 23.5 32 Norte 45 Norte 0 -- -- 66
2019-08-21 07:00:00 23.1 32 Norte 44 Nordeste 0 -- -- 70
2019-08-21 06:00:00 23.1 34 Norte 49 Norte 0 -- -- 74
2019-08-21 05:00:00 23 36 Norte 49 Nordeste 0 -- -- 75
2019-08-21 04:00:00 23 36 Norte 51 Nordeste 0 -- -- 75
2019-08-21 03:00:00 23 40 Norte 54 Nordeste 0 -- -- 77
2019-08-21 02:00:00 23.3 36 Norte 50 Nordeste 0 -- -- 77
2019-08-21 01:00:00 23.5 38 Norte 50 Nordeste 0 -- -- 78
2019-08-21 00:00:00 23.5 37 Norte 54 Nordeste 0 -- -- 74
2019-08-20 23:00:00 23.4 42 Norte 53 Norte 0 -- -- 81
2019-08-20 22:00:00 23.9 32 Nordeste 40 Nordeste 0 -- -- 79
2019-08-20 21:00:00 23.6 30 Nordeste 48 Nordeste 0 -- -- 79
2019-08-20 20:00:00 23.8 41 Nordeste 54 Nordeste 0 -- -- 78
2019-08-20 19:00:00 23.9 43 Nordeste 61 Nordeste 0 -- -- 82
2019-08-20 18:00:00 24.2 48 Nordeste 64 Nordeste 0 -- -- 82
2019-08-20 17:00:00 24.4 45 Norte 62 Nordeste 0 -- -- 81
2019-08-20 16:00:00 24.6 47 Norte 58 Norte 0 -- -- 83
2019-08-20 15:00:00 24.9 45 Norte 55 Nordeste 0 -- -- 82
2019-08-20 14:00:00 25.3 41 Norte 57 Nordeste 0 -- -- 84
2019-08-20 13:00:00 28.5 16 Este 23 Nordeste 0 -- -- 72
2019-08-20 12:00:00 28.6 13 Nordeste 19 Nordeste 0 -- -- 69
2019-08-20 11:00:00 27.5 16 Nordeste 22 Nordeste 0 -- -- 73
2019-08-20 10:00:00 26.8 19 Nordeste 29 Nordeste 0 -- -- 78
2019-08-20 09:00:00 26.2 24 Nordeste 30 Nordeste 0 -- -- 82
2019-08-20 08:00:00 25.8 19 Este 25 Nordeste 0 -- -- 80
2019-08-20 07:00:00 25.6 17 Este 22 Este 0 -- -- 82
2019-08-20 06:00:00 25.6 16 Este 22 Este 0 -- -- 83
2019-08-20 05:00:00 25.6 19 Sudeste 28 Este 0 -- -- 85
2019-08-20 04:00:00 25.8 21 Sudeste 28 Sudeste 0 -- -- 87
2019-08-20 03:00:00 25.8 21 Sudeste 25 Sudeste 0 -- -- 90
2019-08-20 02:00:00 25.6 18 Sudeste 24 Sudeste 0 -- -- 92
2019-08-20 01:00:00 25.8 17 Sudeste 21 Sudeste 0 -- -- 92
2019-08-20 00:00:00 26 18 Sudeste 22 Sudeste 0 -- -- 91
2019-08-19 23:00:00 26.1 18 Sudeste 22 Sudeste 0 -- -- 90
2019-08-19 22:00:00 26.3 15 Sudeste 21 Sur 0 -- -- 88
2019-08-19 21:00:00 26.4 16 Sudeste 22 Sur 0 -- -- 86
2019-08-19 20:00:00 26.7 20 Sudeste 24 Sudeste 0 -- -- 84
2019-08-19 19:00:00 27.1 23 Sur 26 Sur 0 -- -- 82
2019-08-19 18:00:00 28.5 21 Sur 28 Sur 0 -- -- 75
2019-08-19 17:00:00 28.6 25 Sur 29 Sur 0 -- -- 74
2019-08-19 16:00:00 29.4 26 Sur 29 Sur 0 -- -- 70
2019-08-19 15:00:00 30 23 Sur 26 Sur 0 -- -- 70
2019-08-19 14:00:00 30.1 21 Sur 26 Sur 0 -- -- 70
2019-08-19 13:00:00 29.9 23 Sur 28 Sur 0 -- -- 71
2019-08-19 12:00:00 29.6 22 Sur 26 Sur 0 -- -- 73
2019-08-19 11:00:00 29.2 20 Sudeste 24 Sudeste 0 -- -- 76
2019-08-19 10:00:00 28.3 18 Sudeste 21 Sur 0 -- -- 79
2019-08-19 09:00:00 27.9 14 Sudeste 17 Sudeste 0 -- -- 83
2019-08-19 08:00:00 25.7 9 Sudeste 13 Sudeste 0 -- -- 96
2019-08-19 07:00:00 24.9 8 Sudeste 12 Este 0 -- -- 97
2019-08-19 06:00:00 25.1 3 Nordeste 11 Noroeste 0 -- -- 97
2019-08-19 05:00:00 25.1 5 Noroeste 7 Norte 0 -- -- 95
2019-08-19 04:00:00 25.3 2 Oeste 6 Oeste 0 -- -- 94
2019-08-19 03:00:00 25.4 4 Sur 11 Sudoeste 0 -- -- 94
2019-08-19 02:00:00 25.7 7 Sur 19 Sudoeste 0 -- -- 94
2019-08-19 01:00:00 26 12 Sur 29 Sur 0 -- -- 93
2019-08-19 00:00:00 26.2 17 Sur 33 Sur 0 -- -- 91
2019-08-18 23:00:00 26.2 22 Sur 28 Sur 0 -- -- 91
2019-08-18 22:00:00 26.2 21 Sur 25 Sur 0 -- -- 91
2019-08-18 21:00:00 26.4 22 Sur 26 Sur 0 -- -- 90
2019-08-18 20:00:00 26.8 21 Sur 25 Sur 0 -- -- 88
2019-08-18 19:00:00 27.7 20 Sur 27 Sur 0 -- -- 82
2019-08-18 18:00:00 28.5 23 Sur 27 Sur 0 -- -- 76
2019-08-18 17:00:00 29.4 22 Sur 25 Sur 0 -- -- 73
2019-08-18 16:00:00 30.4 20 Sur 25 Sur 0 -- -- 69
2019-08-18 15:00:00 30.4 22 Sur 24 Sur 0 -- -- 68
2019-08-18 14:00:00 30.6 20 Sur 24 Sur 0 -- -- 67
2019-08-18 13:00:00 30.1 19 Sur 23 Sur 0 -- -- 70
2019-08-18 12:00:00 29.5 18 Sur 22 Sur 0 -- -- 73
2019-08-18 11:00:00 29.1 17 Sur 19 Sur 0 -- -- 75
2019-08-18 10:00:00 28.8 14 Sur 17 Sur 0 -- -- 76
2019-08-18 09:00:00 27.7 14 Sur 17 Sur 0 -- -- 79
2019-08-18 08:00:00 26.3 12 Sur 15 Sur 0 -- -- 85
2019-08-18 07:00:00 25.3 11 Sur 20 Sur 0 -- -- 89
2019-08-18 06:00:00 25.3 16 Sur 23 Sur 0 -- -- 89
2019-08-18 05:00:00 25.5 19 Sur 24 Sur 0 -- -- 89
2019-08-18 04:00:00 25.6 19 Sur 31 Sur 0 -- -- 91
2019-08-18 03:00:00 25.6 27 Sur 32 Sur 0 -- -- 91
2019-08-18 02:00:00 25.5 24 Sur 27 Sur 0 -- -- 91
2019-08-18 01:00:00 25.6 20 Sur 26 Sur 0 -- -- 91
2019-08-18 00:00:00 25.7 23 Sur 27 Sur 0 -- -- 91
2019-08-17 23:00:00 25.6 21 Sur 25 Sur 0 -- -- 91
2019-08-17 22:00:00 25.9 20 Sur 25 Sur 0 -- -- 91
2019-08-17 21:00:00 26.1 21 Sur 28 Sur 0 -- -- 89
2019-08-17 20:00:00 26.4 25 Sur 30 Sur 0 -- -- 85
2019-08-17 19:00:00 27.1 26 Sur 31 Sur 0 -- -- 81
2019-08-17 18:00:00 28.2 26 Sur 31 Sur 0 -- -- 74
2019-08-17 17:00:00 29.1 26 Sur 31 Sur 0 -- -- 70
2019-08-17 16:00:00 29.9 25 Sur 30 Sur 0 -- -- 68
2019-08-17 15:00:00 30.6 23 Sur 27 Sur 0 -- -- 64
2019-08-17 14:00:00 31 21 Sur 24 Sur 0 -- -- 63
2019-08-17 13:00:00 30.8 19 Sur 22 Sur 0 -- -- 64
2019-08-17 12:00:00 30.2 18 Sur 22 Sur 0 -- -- 67
2019-08-17 11:00:00 29.2 16 Sur 20 Sudoeste 0 -- -- 70
2019-08-17 10:00:00 27.3 12 Sur 17 Sur 0 -- -- 76
2019-08-17 09:00:00 26.5 9 Sur 12 Sur 0 -- -- 80
2019-08-17 08:00:00 25.8 2 Sudoeste 11 Sur 0 -- -- 85
2019-08-17 07:00:00 24.2 8 Sudoeste 10 Sur 0 -- -- 88
2019-08-17 06:00:00 23.9 3 Sudoeste 9 Sudoeste 0 -- -- 88
2019-08-17 05:00:00 24.1 2 Sur 9 Sur 0 -- -- 87
2019-08-17 04:00:00 24.2 2 Sudoeste 9 Sudoeste 0 -- -- 86
2019-08-17 03:00:00 24.3 0 Calma 8 Oeste 0 -- -- 86
2019-08-17 02:00:00 24.3 3 Sur 11 Oeste 0 -- -- 85
2019-08-17 01:00:00 24.3 2 Sudoeste 13 Sur 0 -- -- 85
2019-08-17 00:00:00 24.7 5 Sudoeste 19 Sudoeste 0 -- -- 82
2019-08-16 23:00:00 25 4 Sudoeste 14 Sudoeste 0 -- -- 79
2019-08-16 22:00:00 25.4 3 Sudoeste 15 Sudoeste 0 -- -- 77
2019-08-16 21:00:00 25.6 5 Sudoeste 25 Sudoeste 0 -- -- 75
2019-08-16 20:00:00 25.8 13 Sur 26 Sur 0 -- -- 72
2019-08-16 19:00:00 26.1 15 Sur 26 Sur 0 -- -- 72
2019-08-16 18:00:00 27.7 21 Sur 28 Sur 0 -- -- 67
2019-08-16 17:00:00 29.4 18 Sur 24 Sur 0 -- -- 61
2019-08-16 16:00:00 29.2 21 Sur 26 Sur 0 -- -- 61
2019-08-16 15:00:00 28.8 21 Sur 26 Sur 0 -- -- 60
2019-08-16 14:00:00 29.1 18 Sudeste 23 Sur 0 -- -- 60
2019-08-16 13:00:00 29.2 18 Sur 23 Sur 0 -- -- 59
2019-08-16 12:00:00 28.1 17 Sudeste 21 Este 0 -- -- 62
2019-08-16 11:00:00 27.6 15 Sudeste 21 Este 0 -- -- 65
2019-08-16 10:00:00 26.2 15 Este 22 Este 0 -- -- 69
2019-08-16 09:00:00 24.8 16 Este 23 Este 0 -- -- 74
2019-08-16 08:00:00 25.2 15 Este 20 Nordeste 0 -- -- 73
2019-08-16 07:00:00 24.2 10 Sudeste 16 Este 0 -- -- 72
2019-08-16 06:00:00 24.2 10 Sudeste 18 Este 0 -- -- 75
2019-08-16 05:00:00 24.1 12 Este 22 Este 0 -- -- 78
2019-08-16 04:00:00 24.3 16 Este 24 Este 0 -- -- 79
2019-08-16 03:00:00 24.4 20 Este 27 Este 0 -- -- 80
2019-08-16 02:00:00 24.5 23 Este 30 Este 0 -- -- 81
2019-08-16 01:00:00 24.8 22 Este 27 Este 0 -- -- 78
2019-08-16 00:00:00 25.1 19 Este 23 Este 0 -- -- 72
2019-08-15 23:00:00 25.5 13 Sur 19 Sur 0 -- -- 72
2019-08-15 22:00:00 25.5 17 Sur 24 Sur 0 -- -- 74
2019-08-15 21:00:00 25.6 21 Sur 25 Sur 0 -- -- 78
2019-08-15 20:00:00 25.9 22 Sur 29 Sur 0 -- -- 76
2019-08-15 19:00:00 26.4 22 Sur 27 Sur 0 -- -- 75
2019-08-15 18:00:00 27.7 22 Sur 30 Sur 0 -- -- 69
2019-08-15 17:00:00 27.4 25 Sur 33 Sur 0 -- -- 69
2019-08-15 16:00:00 28.7 28 Sur 32 Sur 0 -- -- 65
2019-08-15 15:00:00 29.6 22 Sur 26 Sur 0 -- -- 61
2019-08-15 14:00:00 29.9 18 Sur 22 Sur 0 -- -- 61
2019-08-15 13:00:00 29.5 19 Sur 22 Sur 0 -- -- 60
2019-08-15 12:00:00 29.1 17 Sudeste 20 Sur 0 -- -- 58
2019-08-15 11:00:00 28.5 10 Sudeste 14 Sudeste 0 -- -- 63
2019-08-15 10:00:00 27.2 6 Nordeste 9 Nordeste 0 -- -- 66
2019-08-15 09:00:00 27.7 4 Nordeste 7 Nordeste 0 -- -- 66
2019-08-15 08:00:00 26 0 Calma 8 Oeste 0 -- -- 72
2019-08-15 07:00:00 22.7 2 Sur 7 Sudoeste 0 -- -- 82
2019-08-15 06:00:00 23 2 Sudoeste 5 Sudoeste 0 -- -- 81
2019-08-15 05:00:00 23.2 3 Sudoeste 6 Sudoeste 0 -- -- 82
2019-08-15 04:00:00 23.6 0 Calma 5 Norte 0 -- -- 82
2019-08-15 03:00:00 23.7 0 Calma -- -- 0 -- -- 82
2019-08-15 02:00:00 24.1 0 Calma 3 Norte 0 -- -- 82
2019-08-15 01:00:00 24.1 0 Calma -- -- 0 -- -- 80
2019-08-15 00:00:00 24.2 0 Calma 8 Noroeste 0 -- -- 78
2019-08-14 23:00:00 24.6 6 Norte 10 Norte 0 -- -- 76
2019-08-14 22:00:00 24.7 6 Noroeste 16 Norte 0 -- -- 74
2019-08-14 21:00:00 25 12 Norte 17 Norte 0 -- -- 73
2019-08-14 20:00:00 25.5 12 Norte 20 Norte 0 -- -- 72
2019-08-14 19:00:00 26.3 18 Norte 26 Norte 0 -- -- 71
2019-08-14 18:00:00 26.8 21 Norte 34 Nordeste 0 -- -- 72
2019-08-14 17:00:00 26.8 24 Nordeste 30 Nordeste 0 -- -- 67
2019-08-14 16:00:00 27.3 23 Nordeste 31 Nordeste 0 -- -- 67
2019-08-14 15:00:00 28.9 17 Sudeste 26 Sur 0 -- -- 62
2019-08-14 14:00:00 29.2 20 Sur 24 Sur 0 -- -- 60
2019-08-14 13:00:00 29.6 20 Sur 24 Sur 0 -- -- 59
2019-08-14 12:00:00 28.8 16 Sudeste 23 Sur 0 -- -- 60
2019-08-14 11:00:00 28.2 12 Sudeste 18 Sur 0 -- -- 62
2019-08-14 10:00:00 27.7 11 Sur 16 Sur 0 -- -- 60
2019-08-14 09:00:00 26 0 Calma 10 Sur 0 -- -- 66
2019-08-14 08:00:00 23.7 0 Calma 8 Sudoeste 0 -- -- 70
2019-08-14 07:00:00 21.7 0 Calma 7 Oeste 0 -- -- 78
2019-08-14 06:00:00 21.9 3 Sudoeste 6 Oeste 0 -- -- 78
2019-08-14 05:00:00 21.9 0 Calma 3 Oeste 0 -- -- 77
2019-08-14 04:00:00 22.1 0 Calma 6 Sudeste 0 -- -- 75
2019-08-14 03:00:00 22.6 2 Sudeste 6 Norte 0 -- -- 75
2019-08-14 02:00:00 22.6 0 Calma 7 Norte 0 -- -- 74
2019-08-14 01:00:00 22.8 2 Nordeste 10 Nordeste 0 -- -- 73
2019-08-14 00:00:00 22.9 5 Este 13 Nordeste 0 -- -- 72
2019-08-13 23:00:00 22.9 9 Nordeste 13 Nordeste 0 -- -- 71
2019-08-13 22:00:00 23 9 Nordeste 15 Nordeste 0 -- -- 70
2019-08-13 21:00:00 23 9 Nordeste 17 Norte 0 -- -- 69
2019-08-13 20:00:00 23.4 14 Norte 21 Norte 0 -- -- 67
2019-08-13 19:00:00 23.5 17 Norte 30 Norte 0 -- -- 66
2019-08-13 18:00:00 24.2 23 Norte 33 Norte 0 -- -- 63
2019-08-13 17:00:00 24.2 28 Norte 36 Nordeste 0 -- -- 64
2019-08-13 16:00:00 24.2 27 Norte 42 Nordeste 0 -- -- 63
2019-08-13 15:00:00 24.3 32 Norte 45 Nordeste 0 -- -- 63
2019-08-13 14:00:00 24.2 34 Nordeste 46 Nordeste 0 -- -- 60
2019-08-13 13:00:00 24.1 36 Nordeste 54 Nordeste 0 -- -- 60
2019-08-13 12:00:00 24.1 40 Norte 54 Nordeste 0 -- -- 63
2019-08-13 11:00:00 23.8 40 Nordeste 56 Nordeste 0 -- -- 64
2019-08-13 10:00:00 23.8 46 Nordeste 63 Nordeste 0 -- -- 61
2019-08-13 09:00:00 23.5 51 Nordeste 66 Nordeste 0 -- -- 65
2019-08-13 08:00:00 23.6 48 Norte 66 Nordeste 0 -- -- 66
2019-08-13 07:00:00 23.4 49 Norte 64 Nordeste 0.1 -- -- 69
2019-08-13 06:00:00 23.6 47 Norte 67 Nordeste 0 -- -- 68
2019-08-13 05:00:00 23.5 46 Norte 61 Nordeste 0 -- -- 69
2019-08-13 04:00:00 24 46 Norte 59 Nordeste 0 -- -- 63
2019-08-13 03:00:00 24.2 48 Norte 66 Nordeste 0.1 -- -- 66
2019-08-13 02:00:00 24.3 47 Norte 62 Nordeste 0 -- -- 65
2019-08-13 01:00:00 24.5 45 Norte 57 Nordeste 0 -- -- 69
2019-08-13 00:00:00 24.8 46 Nordeste 57 Nordeste 0 -- -- 68
2019-08-12 23:00:00 24.7 42 Nordeste 52 Nordeste 0 -- -- 68
2019-08-12 22:00:00 24.9 36 Norte 48 Nordeste 0 -- -- 69
2019-08-12 21:00:00 24.7 32 Norte 44 Nordeste 0 -- -- 71
2019-08-12 20:00:00 24.6 32 Norte 44 Norte 0 -- -- 72
2019-08-12 19:00:00 25 33 Norte 45 Norte 0 -- -- 75
2019-08-12 18:00:00 25.3 39 Norte 44 Norte 0 -- -- 75
2019-08-12 17:00:00 25.7 35 Norte 46 Nordeste 0 -- -- 75
2019-08-12 16:00:00 25 33 Norte 46 Nordeste 0 -- -- 81
2019-08-12 15:00:00 25 35 Norte 44 Norte 0 -- -- 83
2019-08-12 14:00:00 25.2 32 Nordeste 42 Nordeste 0 -- -- 84
2019-08-12 13:00:00 25.6 35 Nordeste 46 Nordeste 0 -- -- 83
2019-08-12 12:00:00 25.4 32 Norte 41 Nordeste 0 -- -- 86
2019-08-12 11:00:00 26.1 27 Nordeste 33 Nordeste 0 -- -- 82
2019-08-12 10:00:00 25.6 26 Nordeste 44 Nordeste 0 -- -- 84
2019-08-12 09:00:00 25 35 Nordeste 48 Nordeste 0 -- -- 85
2019-08-12 08:00:00 24.9 37 Nordeste 58 Nordeste 0 -- -- 87
2019-08-12 07:00:00 25.2 47 Nordeste 57 Nordeste 0 -- -- 91
2019-08-12 06:00:00 25.8 33 Norte 45 Nordeste 0 -- -- 94
2019-08-12 05:00:00 26.1 8 Norte 19 Nordeste 0 -- -- 94
2019-08-12 04:00:00 25.9 16 Nordeste 19 Nordeste 0 -- -- 94
2019-08-12 03:00:00 26.2 4 Noroeste 8 Noroeste 0 -- -- 94
2019-08-12 02:00:00 26.4 2 Sudoeste 7 Sudoeste 0 -- -- 94
2019-08-12 01:00:00 26.4 4 Sudeste 8 Este 0 -- -- 94
2019-08-12 00:00:00 26.5 5 Nordeste 6 Nordeste 0 -- -- 94
2019-08-11 23:00:00 26.6 6 Nordeste 9 Nordeste 0 -- -- 93
2019-08-11 22:00:00 27 4 Sudeste 9 Sur 0 -- -- 90
2019-08-11 21:00:00 27.2 9 Sur 14 Sur 0 -- -- 89
2019-08-11 20:00:00 27.7 10 Sur 16 Sur 0 -- -- 85
2019-08-11 19:00:00 28.7 13 Sur 20 Sudeste 0 -- -- 83
2019-08-11 18:00:00 28.7 15 Sudeste 25 Sur 0 -- -- 82
2019-08-11 17:00:00 29.9 21 Sur 30 Sur 0 -- -- 75
2019-08-11 16:00:00 30.2 22 Sur 31 Sur 0 -- -- 75
2019-08-11 15:00:00 31.2 22 Sur 37 Sur 0 -- -- 70
2019-08-11 14:00:00 28.5 22 Sur 36 Sur 0 -- -- 82
2019-08-11 13:00:00 30.7 22 Sur 30 Sur 0 -- -- 74
2019-08-11 12:00:00 30.6 21 Sur 25 Sur 0 -- -- 75
2019-08-11 11:00:00 30.2 15 Sur 19 Sur 0 -- -- 76
2019-08-11 10:00:00 28.5 15 Sur 18 Sur 0 -- -- 83
2019-08-11 09:00:00 27.4 14 Sur 18 Sur 0 -- -- 89
2019-08-11 08:00:00 26.6 13 Sudeste 14 Sudeste 0 -- -- 93
2019-08-11 07:00:00 26.1 10 Sudeste 15 Sudeste 0 -- -- 94
2019-08-11 06:00:00 26.3 12 Sudeste 14 Sudeste 0 -- -- 94
2019-08-11 05:00:00 26.2 11 Este 14 Este 0 -- -- 94
2019-08-11 04:00:00 26.3 8 Este 12 Sudeste 0 -- -- 94
2019-08-11 03:00:00 26.6 9 Sudeste 14 Sudeste 0 -- -- 94
2019-08-11 02:00:00 26.7 12 Sudeste 14 Sur 0 -- -- 94
2019-08-11 01:00:00 26.9 10 Sudeste 14 Sudeste 0 -- -- 94
2019-08-11 00:00:00 27 10 Sudeste 15 Sudeste 0 -- -- 94
2019-08-10 23:00:00 27 12 Sudeste 17 Sudeste 0 -- -- 91
2019-08-10 22:00:00 27.1 10 Sudeste 13 Sudeste 0 -- -- 91
2019-08-10 21:00:00 27 8 Sudeste 10 Este 0 -- -- 90
2019-08-10 20:00:00 27.4 5 Nordeste 9 Norte 0 -- -- 87
2019-08-10 19:00:00 27.9 7 Norte 12 Norte 0 -- -- 85
2019-08-10 18:00:00 28.6 10 Norte 14 Norte 0 -- -- 82
2019-08-10 17:00:00 29.8 12 Norte 19 Norte 0 -- -- 77
2019-08-10 16:00:00 29.7 15 Norte 27 Norte 0 -- -- 77
2019-08-10 15:00:00 31.1 23 Norte 27 Norte 0 -- -- 70
2019-08-10 14:00:00 31 26 Norte 30 Norte 0 -- -- 70
2019-08-10 13:00:00 30.8 22 Norte 26 Noroeste 0 -- -- 73
2019-08-10 12:00:00 30.8 16 Norte 21 Noroeste 0 -- -- 73
2019-08-10 11:00:00 29.2 20 Noroeste 40 Norte 0 -- -- 81
2019-08-10 10:00:00 28.9 32 Norte 40 Norte 0 -- -- 77
2019-08-10 09:00:00 28.1 25 Noroeste 34 Noroeste 0 -- -- 75
2019-08-10 08:00:00 28 23 Noroeste 34 Norte 0 -- -- 69
2019-08-10 07:00:00 26.8 9 Norte 18 Noroeste 0 -- -- 76
2019-08-10 06:00:00 26.9 5 Noroeste 13 Oeste 0 -- -- 55
2019-08-10 05:00:00 26.6 3 Sur 14 Sudoeste 0 -- -- 57
2019-08-10 04:00:00 25.8 2 Sudoeste 14 Sudoeste 0 -- -- 67
2019-08-10 03:00:00 26 4 Sudoeste 16 Sudoeste 0 -- -- 61
2019-08-10 02:00:00 26.3 5 Sudoeste 22 Sur 0 -- -- 63
2019-08-10 01:00:00 26.1 3 Sudoeste 24 Sur 0 -- -- 67
2019-08-10 00:00:00 26.4 3 Sudoeste 15 Sur 0 -- -- 67
2019-08-09 23:00:00 26.7 9 Sur 18 Sur 0 -- -- 79
2019-08-09 22:00:00 26.4 9 Sudoeste 18 Sur 0 -- -- 85
2019-08-09 21:00:00 27 3 Sudoeste 22 Sudoeste 0 -- -- 86
2019-08-09 20:00:00 27.2 9 Sudoeste 35 Sur 0 -- -- 86
2019-08-09 19:00:00 26.7 21 Sur 45 Sur 0 -- -- 91
2019-08-09 18:00:00 27.2 21 Sur 44 Sur 0 -- -- 86
2019-08-09 17:00:00 27.5 33 Sur 46 Sur 0 -- -- 85
2019-08-09 16:00:00 28.8 36 Sur 44 Sur 0 -- -- 79
2019-08-09 15:00:00 27.7 27 Sur 45 Sur 0 -- -- 84
2019-08-09 14:00:00 27.7 26 Sur 43 Sur 0 -- -- 83
2019-08-09 13:00:00 27.3 24 Sur 41 Sur 0 -- -- 85
2019-08-09 12:00:00 27.4 24 Sur 41 Sur 0 -- -- 87
2019-08-09 11:00:00 27 22 Sur 32 Sur 0 -- -- 87
2019-08-09 10:00:00 27.1 22 Sur 31 Sur 0 -- -- 88
2019-08-09 09:00:00 26.1 23 Sur 30 Sur 0 -- -- 91
2019-08-09 08:00:00 25.7 13 Sudoeste 19 Sudoeste 0 -- -- 91
2019-08-09 07:00:00 24.6 6 Sudoeste 13 Sur 0 -- -- 93
2019-08-09 06:00:00 24.5 0 Calma 11 Oeste 0 -- -- 93
2019-08-09 05:00:00 24.6 3 Sudoeste 14 Sudoeste 0 -- -- 94
2019-08-09 04:00:00 25.3 3 Oeste 19 Sudoeste 0 -- -- 94
2019-08-09 03:00:00 25.5 6 Sudoeste 14 Sur 0 -- -- 91
2019-08-09 02:00:00 25.4 3 Sudoeste 25 Sur 0 -- -- 89
2019-08-09 01:00:00 26.2 13 Sudoeste 28 Sur 0 -- -- 91
2019-08-09 00:00:00 26.2 14 Sudoeste 27 Sudoeste 0 -- -- 96
2019-08-08 23:00:00 26.5 8 Sur 13 Sur 0 -- -- 95
2019-08-08 22:00:00 26.6 8 Sudoeste 18 Sur 0 -- -- 95
2019-08-08 21:00:00 26.9 13 Sur 25 Sudoeste 0 -- -- 94
2019-08-08 20:00:00 27 18 Sur 29 Sur 0 -- -- 92
2019-08-08 19:00:00 26.9 18 Sur 31 Sur 0 -- -- 91
2019-08-08 18:00:00 27.6 18 Sur 31 Sur 0 -- -- 87
2019-08-08 17:00:00 28.2 22 Sur 32 Sudoeste 0 -- -- 82
2019-08-08 16:00:00 28.8 22 Sur 32 Sur 0 -- -- 79
2019-08-08 15:00:00 31.1 25 Sur 29 Sur 0 -- -- 69
2019-08-08 14:00:00 31.5 22 Sur 26 Sur 0 -- -- 68
2019-08-08 13:00:00 31.1 20 Sur 24 Sur 0 -- -- 69
2019-08-08 12:00:00 30.1 18 Sur 21 Sur 0 -- -- 74
2019-08-08 11:00:00 30 14 Sur 16 Sur 0 -- -- 73
2019-08-08 10:00:00 29.6 10 Sur 12 Sur 0 -- -- 75
2019-08-08 09:00:00 29 7 Sudeste 9 Sudeste 0 -- -- 77
2019-08-08 08:00:00 27 6 Nordeste 14 Norte 0 -- -- 88
2019-08-08 07:00:00 25.7 12 Norte 19 Noroeste 0 -- -- 92
2019-08-08 06:00:00 25.4 14 Norte 16 Norte 0 -- -- 93
2019-08-08 05:00:00 25.1 9 Norte 13 Noroeste 0 -- -- 90
2019-08-08 04:00:00 25.2 0 Calma 5 Oeste 0 -- -- 92
2019-08-08 03:00:00 24.9 0 Calma 8 Sur 0 -- -- 92
2019-08-08 02:00:00 25.3 4 Sudeste 6 Sudeste 0 -- -- 92
2019-08-08 01:00:00 25.6 2 Este 7 Oeste 0 -- -- 91
2019-08-08 00:00:00 26 5 Noroeste 11 Norte 0 -- -- 91
2019-08-07 23:00:00 26.2 10 Norte 21 Norte 0 -- -- 91
2019-08-07 22:00:00 26.4 20 Norte 23 Norte 0 -- -- 90
2019-08-07 21:00:00 26.6 14 Norte 16 Norte 0 -- -- 85
2019-08-07 20:00:00 27.4 11 Norte 13 Norte 0 -- -- 81
2019-08-07 19:00:00 27.3 10 Norte 14 Norte 0 -- -- 81
2019-08-07 18:00:00 29.4 11 Norte 15 Norte 0 -- -- 73
2019-08-07 17:00:00 28.7 12 Norte 19 Noroeste 0 -- -- 74
2019-08-07 16:00:00 29.9 13 Norte 15 Norte 0 -- -- 70
2019-08-07 15:00:00 29.2 8 Norte 14 Norte 0 -- -- 71
2019-08-07 14:00:00 29.6 14 Norte 18 Norte 0 -- -- 70
2019-08-07 13:00:00 30.8 13 Sur 23 Sur 0 -- -- 70
2019-08-07 12:00:00 29 20 Sur 31 Sur 0 -- -- 80
2019-08-07 11:00:00 26.6 16 Sur 32 Sur 0 -- -- 88
2019-08-07 10:00:00 28.2 14 Sur 18 Sur 0 -- -- 80
2019-08-07 09:00:00 26.4 7 Sur 9 Sur 0 -- -- 88
2019-08-07 08:00:00 25.6 2 Sudeste 6 Sudeste 0 -- -- 93
2019-08-07 07:00:00 24.3 4 Sur 8 Sudoeste 0 -- -- 95
2019-08-07 06:00:00 24.3 5 Oeste 8 Sudoeste 0 -- -- 95
2019-08-07 05:00:00 24.4 2 Sudoeste 6 Sur 0 -- -- 95
2019-08-07 04:00:00 24.8 3 Oeste 5 Sur 0 -- -- 94
2019-08-07 03:00:00 25.1 2 Oeste 6 Oeste 0 -- -- 94
2019-08-07 02:00:00 25.3 0 Calma 4 Sudoeste 0 -- -- 94
2019-08-07 01:00:00 25.2 0 Calma 5 Sudeste 0 -- -- 94
2019-08-07 00:00:00 25.5 3 Sudeste 5 Sudeste 0 -- -- 94
2019-08-06 23:00:00 25.5 2 Nordeste 10 Norte 0 -- -- 94
2019-08-06 22:00:00 25.9 9 Norte 12 Norte 0 -- -- 93
2019-08-06 21:00:00 26.2 13 Norte 19 Noroeste 0 -- -- 89
2019-08-06 20:00:00 26.7 15 Norte 22 Noroeste 0 -- -- 85
2019-08-06 19:00:00 27.8 21 Norte 24 Norte 0 -- -- 78
2019-08-06 18:00:00 29 21 Norte 27 Noroeste 0 -- -- 74
2019-08-06 17:00:00 29.6 23 Norte 28 Noroeste 0 -- -- 71
2019-08-06 16:00:00 30 22 Noroeste 30 Norte 0 -- -- 72
2019-08-06 15:00:00 30.3 18 Sur 28 Sur 0 -- -- 72
2019-08-06 14:00:00 30.8 21 Sur 27 Sur 0 -- -- 70
2019-08-06 13:00:00 30.7 21 Sur 25 Sur 0 -- -- 70
2019-08-06 12:00:00 30.3 18 Sur 21 Sur 0 -- -- 71
2019-08-06 11:00:00 30.1 12 Sur 15 Sur 0 -- -- 74
2019-08-06 10:00:00 28.4 12 Sur 17 Sur 0 -- -- 81
2019-08-06 09:00:00 26.5 10 Sur 13 Sur 0 -- -- 91
2019-08-06 08:00:00 25.4 3 Norte 10 Norte 0 -- -- 96
2019-08-06 07:00:00 24.9 6 Norte 8 Norte 0 -- -- 96
2019-08-06 06:00:00 24.9 5 Norte 10 Norte 0 -- -- 95
2019-08-06 05:00:00 25 2 Norte 12 Norte 0 -- -- 94
2019-08-06 04:00:00 25.1 4 Sur 11 Sudoeste 0 -- -- 94
2019-08-06 03:00:00 25.3 8 Sudoeste 12 Sudoeste 0 -- -- 94
2019-08-06 02:00:00 25.6 9 Sur 18 Sur 0 -- -- 94
2019-08-06 01:00:00 25.7 14 Sur 18 Sur 0 -- -- 94
2019-08-06 00:00:00 25.7 15 Sur 22 Sur 0 -- -- 94
2019-08-05 23:00:00 25.8 19 Sur 24 Sur 0 -- -- 94
2019-08-05 22:00:00 26 18 Sur 23 Sur 0 -- -- 94
2019-08-05 21:00:00 26.4 19 Sur 23 Sur 0 -- -- 92
2019-08-05 20:00:00 26.8 19 Sur 22 Sur 0 -- -- 87
2019-08-05 19:00:00 27.6 17 Sur 23 Sur 0 -- -- 80
2019-08-05 18:00:00 29.3 20 Sur 24 Sur 0 -- -- 72
2019-08-05 17:00:00 29.3 19 Sur 23 Sur 0 -- -- 73
2019-08-05 16:00:00 29.8 18 Sur 24 Sur 0 -- -- 72
2019-08-05 15:00:00 29.8 21 Sur 24 Sur 0 -- -- 72
2019-08-05 14:00:00 30.7 17 Sur 22 Sur 0 -- -- 68
2019-08-05 13:00:00 30.8 15 Sur 18 Sur 0 -- -- 67
2019-08-05 12:00:00 29.9 16 Sur 19 Sur 0 -- -- 70
2019-08-05 11:00:00 29.4 17 Sur 19 Sur 0 -- -- 71
2019-08-05 10:00:00 28.9 13 Sur 17 Sudeste 0 -- -- 73
2019-08-05 09:00:00 28 13 Sudeste 18 Sudeste 0 -- -- 77
2019-08-05 08:00:00 26.5 12 Este 14 Este 0 -- -- 85
2019-08-05 07:00:00 24.8 0 Calma 8 Sudeste 0 -- -- 91
2019-08-05 06:00:00 24.8 3 Sudeste 5 Este 0 -- -- 91
2019-08-05 05:00:00 24.8 2 Este 5 Este 0 -- -- 89
2019-08-05 04:00:00 25 2 Sudeste 5 Sur 0 -- -- 87
2019-08-05 03:00:00 25 4 Sur 8 Sudoeste 0 -- -- 85
2019-08-05 02:00:00 25.1 3 Sudoeste 8 Oeste 0 -- -- 84
2019-08-05 01:00:00 25.4 3 Sudoeste 13 Sudoeste 0 -- -- 82
2019-08-05 00:00:00 25.9 9 Sur 19 Sur 0 -- -- 81
2019-08-04 23:00:00 26.1 14 Sur 17 Sur 0 -- -- 79
2019-08-04 22:00:00 26.3 14 Sur 19 Sur 0 -- -- 79
2019-08-04 21:00:00 26.7 16 Sur 22 Sur 0 -- -- 78
2019-08-04 20:00:00 27.1 19 Sur 23 Sur 0 -- -- 75
2019-08-04 19:00:00 27.9 19 Sur 22 Sur 0 -- -- 69
2019-08-04 18:00:00 29.2 17 Sur 20 Sur 0 -- -- 66
2019-08-04 17:00:00 30.3 18 Sur 21 Sur 0 -- -- 64
2019-08-04 16:00:00 31.5 17 Sur 21 Sur 0 -- -- 54
2019-08-04 15:00:00 32.3 17 Sur 21 Sur 0 -- -- 51
2019-08-04 14:00:00 31.6 17 Sur 19 Sur 0 -- -- 55
2019-08-04 13:00:00 31.5 13 Sur 15 Sur 0 -- -- 64
2019-08-04 12:00:00 29.3 4 Norte 11 Noroeste 0 -- -- 71
2019-08-04 11:00:00 30.3 9 Norte 17 Noroeste 0 -- -- 68
2019-08-04 10:00:00 29.3 12 Noroeste 15 Noroeste 0 -- -- 64
2019-08-04 09:00:00 27.5 13 Noroeste 18 Noroeste 0 -- -- 63
2019-08-04 08:00:00 26.6 9 Noroeste 24 Noroeste 0 -- -- 72
2019-08-04 07:00:00 24.8 15 Norte 19 Norte 0 -- -- 73
2019-08-04 06:00:00 24.9 9 Nordeste 12 Nordeste 0 -- -- 72
2019-08-04 05:00:00 25.3 2 Sudoeste 4 Sudoeste 0 -- -- 41
2019-08-04 04:00:00 25.3 0 Calma 8 Oeste 0 -- -- 44
2019-08-04 03:00:00 25.5 7 Oeste 12 Oeste 0 -- -- 50
2019-08-04 02:00:00 25.4 2 Sur 12 Sudoeste 0 -- -- 57
2019-08-04 01:00:00 24.9 0 Calma 12 Sudoeste 0 -- -- 72
2019-08-04 00:00:00 25 3 Sudoeste 14 Sudoeste 0 -- -- 77
2019-08-03 23:00:00 25.8 6 Sur 17 Sur 0 -- -- 75
2019-08-03 22:00:00 26 14 Sur 18 Sur 0 -- -- 73
2019-08-03 21:00:00 26.4 15 Sur 22 Sur 0 -- -- 69
2019-08-03 20:00:00 27 20 Sur 23 Sur 0 -- -- 66
2019-08-03 19:00:00 27.5 12 Sudeste 15 Sudeste 0 -- -- 64
2019-08-03 18:00:00 27.5 7 Nordeste 14 Nordeste 0 -- -- 72
2019-08-03 17:00:00 28.6 12 Norte 19 Nordeste 0 -- -- 67
2019-08-03 16:00:00 28.9 13 Norte 17 Norte 0 -- -- 64
2019-08-03 15:00:00 29.8 13 Norte 22 Noroeste 0 -- -- 63
2019-08-03 14:00:00 30.3 19 Noroeste 24 Noroeste 0 -- -- 61
2019-08-03 13:00:00 30.2 16 Noroeste 19 Noroeste 0 -- -- 61
2019-08-03 12:00:00 29.8 14 Noroeste 22 Noroeste 0 -- -- 61
2019-08-03 11:00:00 29.4 10 Norte 20 Norte 0 -- -- 59
2019-08-03 10:00:00 27.5 18 Noroeste 27 Noroeste 0 -- -- 65
2019-08-03 09:00:00 27.2 18 Noroeste 34 Norte 0 -- -- 67
2019-08-03 08:00:00 26.4 22 Noroeste 26 Norte 0 -- -- 55
2019-08-03 07:00:00 24.9 8 Noroeste 12 Noroeste 0 -- -- 57
2019-08-03 06:00:00 24.9 6 Noroeste 9 Noroeste 0 -- -- 52
2019-08-03 05:00:00 25.1 5 Noroeste 9 Norte 0 -- -- 51
2019-08-03 04:00:00 24.8 3 Sur 10 Sudoeste 0 -- -- 52
2019-08-03 03:00:00 24.1 5 Sudoeste 8 Sur 0 -- -- 68
2019-08-03 02:00:00 24.2 5 Noroeste 9 Noroeste 0 -- -- 75
2019-08-03 01:00:00 24.6 5 Norte 12 Norte 0 -- -- 74
2019-08-03 00:00:00 24.8 10 Norte 14 Norte 0 -- -- 72
2019-08-02 23:00:00 24.6 12 Norte 20 Norte 0 -- -- 74
2019-08-02 22:00:00 25 18 Norte 24 Norte 0 -- -- 73
2019-08-02 21:00:00 25.1 22 Norte 28 Norte 0 -- -- 74
2019-08-02 20:00:00 25.6 24 Norte 30 Norte 0 -- -- 69
2019-08-02 19:00:00 26.4 25 Norte 30 Norte 0 -- -- 63
2019-08-02 18:00:00 27.4 26 Norte 29 Norte 0 -- -- 61
2019-08-02 17:00:00 27.4 23 Norte 28 Noroeste 0 -- -- 63
2019-08-02 16:00:00 27.7 24 Noroeste 30 Noroeste 0 -- -- 63
2019-08-02 15:00:00 28.9 24 Norte 30 Norte 0 -- -- 59
2019-08-02 14:00:00 28.7 26 Norte 34 Norte 0 -- -- 60
2019-08-02 13:00:00 28.1 28 Norte 35 Norte 0 -- -- 60
2019-08-02 12:00:00 27.7 27 Norte 37 Nordeste 0 -- -- 62
2019-08-02 11:00:00 27 32 Norte 42 Norte 0 -- -- 63
2019-08-02 10:00:00 27 31 Norte 42 Norte 0 -- -- 63
2019-08-02 09:00:00 26.4 35 Norte 42 Norte 0 -- -- 59
2019-08-02 08:00:00 25.5 37 Norte 45 Norte 0 -- -- 59
2019-08-02 07:00:00 24.6 37 Norte 45 Norte 0 -- -- 82
2019-08-02 06:00:00 24.5 36 Norte 43 Norte 0 -- -- 96
2019-08-02 05:00:00 25.1 25 Noroeste 28 Norte 0 -- -- 96
2019-08-02 04:00:00 25.2 19 Norte 28 Norte 0 -- -- 96
2019-08-02 03:00:00 25.5 16 Norte 19 Norte 0 -- -- 95
2019-08-02 02:00:00 25.7 8 Noroeste 12 Noroeste 0 -- -- 95
2019-08-02 01:00:00 25.9 9 Norte 15 Noroeste 0 -- -- 94
2019-08-02 00:00:00 25.9 10 Noroeste 23 Noroeste 0 -- -- 93
2019-08-01 23:00:00 25.9 16 Noroeste 20 Noroeste 0 -- -- 91
2019-08-01 22:00:00 26.1 11 Noroeste 15 Noroeste 0 -- -- 90
2019-08-01 21:00:00 26.2 10 Nordeste 32 Norte 0 -- -- 87
2019-08-01 20:00:00 26.5 17 Norte 22 Norte 0 -- -- 85
2019-08-01 19:00:00 27.2 10 Norte 16 Norte 0 -- -- 82
2019-08-01 18:00:00 27.3 13 Norte 17 Norte 0 -- -- 81
2019-08-01 17:00:00 28.4 12 Nordeste 16 Nordeste 0 -- -- 75
2019-08-01 16:00:00 29 10 Nordeste 13 Nordeste 0 -- -- 73
2019-08-01 15:00:00 28.4 9 Nordeste 14 Nordeste 0 -- -- 73
2019-08-01 14:00:00 28.5 10 Nordeste 16 Nordeste 0 -- -- 72
2019-08-01 13:00:00 29.2 6 Este 21 Sudeste 0 -- -- 69
2019-08-01 12:00:00 28.7 15 Sudeste 26 Sudeste 0 -- -- 72
2019-08-01 11:00:00 27.4 20 Este 26 Este 0 -- -- 74
2019-08-01 10:00:00 27.5 13 Este 23 Nordeste 0 -- -- 71
2019-08-01 09:00:00 26.3 19 Nordeste 27 Nordeste 0 -- -- 73
2019-08-01 08:00:00 25.3 19 Nordeste 23 Este 0 -- -- 80
2019-08-01 07:00:00 24.5 19 Este 29 Este 0 -- -- 82
2019-08-01 06:00:00 24.1 21 Este 28 Nordeste 0 -- -- 84
2019-08-01 05:00:00 24.1 22 Nordeste 37 Nordeste 0 -- -- 81
2019-08-01 04:00:00 24.2 26 Norte 31 Norte 0 -- -- 78
2019-08-01 03:00:00 24.2 18 Nordeste 31 Norte 0 -- -- 78
2019-08-01 02:00:00 24.3 19 Norte 27 Nordeste 0 -- -- 78
2019-08-01 01:00:00 24.2 14 Nordeste 30 Este 0 -- -- 76
2019-08-01 00:00:00 24.2 24 Nordeste 29 Nordeste 0 -- -- 73
2019-07-31 23:00:00 24.3 19 Nordeste 27 Norte 0 -- -- 71
2019-07-31 22:00:00 24.5 22 Norte 30 Norte 0 -- -- 69
2019-07-31 21:00:00 24.6 25 Norte 35 Nordeste 0 -- -- 72
2019-07-31 20:00:00 24.8 28 Nordeste 37 Nordeste 0 -- -- 72
2019-07-31 19:00:00 25 24 Norte 29 Norte 0 -- -- 69
2019-07-31 18:00:00 25.4 28 Norte 34 Norte 0 -- -- 69
2019-07-31 17:00:00 26.1 22 Norte 33 Nordeste 0 -- -- 65
2019-07-31 16:00:00 26 28 Norte 38 Nordeste 0 -- -- 65
2019-07-31 15:00:00 27.3 28 Nordeste 49 Norte 0 -- -- 57
2019-07-31 14:00:00 26.1 23 Norte 32 Nordeste 0 -- -- 63
2019-07-31 13:00:00 26 20 Nordeste 40 Norte 0 -- -- 60
2019-07-31 12:00:00 26.7 28 Nordeste 42 Nordeste 0 -- -- 65
2019-07-31 11:00:00 26.6 32 Nordeste 40 Nordeste 0 -- -- 65
2019-07-31 10:00:00 25.7 30 Nordeste 41 Nordeste 0 -- -- 69
2019-07-31 09:00:00 24.9 34 Nordeste 45 Nordeste 0 -- -- 72
2019-07-31 08:00:00 24.3 39 Nordeste 48 Nordeste 0 -- -- 74
2019-07-31 07:00:00 23.8 35 Nordeste 45 Nordeste 0 -- -- 75
2019-07-31 06:00:00 23.9 35 Nordeste 43 Nordeste 0 -- -- 77
2019-07-31 05:00:00 24.1 33 Nordeste 44 Norte 0 -- -- 75
2019-07-31 04:00:00 23.9 30 Nordeste 38 Nordeste 0 -- -- 75
2019-07-31 03:00:00 24 28 Nordeste 34 Norte 0 -- -- 77
2019-07-31 02:00:00 24.2 25 Nordeste 32 Norte 0 -- -- 78
2019-07-31 01:00:00 24.3 22 Nordeste 27 Nordeste 0 -- -- 76
2019-07-31 00:00:00 24.6 19 Nordeste 26 Este 0 -- -- 75
2019-07-30 23:00:00 24.8 19 Nordeste 24 Nordeste 0 -- -- 78
2019-07-30 22:00:00 24.8 16 Este 23 Este 0 -- -- 81
2019-07-30 21:00:00 25.1 17 Sudeste 23 Sudeste 0 -- -- 81
2019-07-30 20:00:00 25.5 18 Sudeste 24 Sudeste 0 -- -- 80
2019-07-30 19:00:00 25.7 21 Sudeste 26 Sudeste 0 -- -- 80
2019-07-30 18:00:00 26.5 23 Sudeste 28 Sudeste 0 -- -- 79
2019-07-30 17:00:00 27.4 24 Sudeste 28 Sudeste 0 -- -- 76
2019-07-30 16:00:00 28.7 22 Sudeste 32 Sudeste 0 -- -- 71
2019-07-30 15:00:00 28.8 24 Sudeste 33 Sudeste 0 -- -- 73
2019-07-30 14:00:00 29.3 21 Norte 26 Norte 0 -- -- 67
2019-07-30 13:00:00 28.9 16 Norte 21 Norte 0 -- -- 72
2019-07-30 12:00:00 29.7 17 Norte -- -- -- -- -- 69
2019-07-30 11:00:00 -- -- -- -- -- -- -- -- --
2019-07-30 10:00:00 -- -- -- -- -- -- -- -- --
2019-07-30 09:00:00 29.2 3 Norte 9 Oeste 0 -- -- 57
2019-07-30 08:00:00 26.5 8 Oeste 12 Oeste 0 -- -- 66
2019-07-30 07:00:00 24 4 Oeste 9 Oeste 0 -- -- 72
2019-07-30 06:00:00 23.7 5 Oeste 10 Oeste 0 -- -- 79
2019-07-30 05:00:00 23.2 3 Sudoeste 14 Sudoeste 0 -- -- 82
2019-07-30 04:00:00 23.5 5 Sudoeste 15 Sudoeste 0 -- -- 82
2019-07-30 03:00:00 23.8 8 Sudoeste 15 Oeste 0 -- -- 81
2019-07-30 02:00:00 24 3 Sudoeste 12 Oeste 0 -- -- 78
2019-07-30 01:00:00 24.3 0 Calma 10 Sudoeste 0 -- -- 75
2019-07-30 00:00:00 24.3 2 Oeste 7 Sudoeste 0 -- -- 81
2019-07-29 23:00:00 25.5 2 Sudeste 6 Sudeste 0 -- -- 84
2019-07-29 22:00:00 25.8 5 Norte 8 Norte 0 -- -- 83
2019-07-29 21:00:00 26.4 6 Norte 12 Norte 0 -- -- 79
2019-07-29 20:00:00 26.9 6 Norte 18 Norte 0 -- -- 77
2019-07-29 19:00:00 27.8 4 Norte 21 Sur 0 -- -- 73
2019-07-29 18:00:00 28.4 6 Sudoeste 49 Sur 0 -- -- 68
2019-07-29 17:00:00 26.9 39 Sur 47 Sur 0 -- -- 76
2019-07-29 16:00:00 27.6 29 Sur 39 Sur 0 -- -- 72
2019-07-29 15:00:00 27.7 27 Sur 38 Sur 0 -- -- 73
2019-07-29 14:00:00 28.1 29 Sur -- -- -- -- -- 71
2019-07-29 13:00:00 27.7 29 Sur 34 Sur 0 -- -- 73
2019-07-29 12:00:00 26.5 24 Sur 30 Sur 0 -- -- 73
2019-07-29 11:00:00 27.3 19 Sur 24 Sur 0 -- -- 69
2019-07-29 10:00:00 26.9 13 Sur 17 Sur 0 -- -- 62
2019-07-29 09:00:00 26.6 4 Sur 10 Oeste 0 -- -- 60
2019-07-29 08:00:00 23.7 9 Sudoeste 13 Sudoeste 0 -- -- 69
2019-07-29 07:00:00 22.7 12 Oeste 15 Oeste 0 -- -- 75
2019-07-29 06:00:00 22 10 Oeste 16 Noroeste 0 -- -- 79
2019-07-29 05:00:00 22 7 Noroeste 16 Oeste 0 -- -- 81
2019-07-29 04:00:00 22.3 13 Oeste 20 Noroeste 0 -- -- 87
2019-07-29 03:00:00 22.4 10 Noroeste 19 Noroeste 0 -- -- 87
2019-07-29 02:00:00 22.9 10 Oeste 14 Oeste 0 -- -- 84
2019-07-29 01:00:00 23.2 8 Oeste 13 Oeste 0 -- -- 80
2019-07-29 00:00:00 23.4 5 Sudoeste 10 Sudoeste 0 -- -- 75
2019-07-28 23:00:00 23.5 4 Sudoeste 18 Oeste 0 -- -- 74
2019-07-28 22:00:00 23.7 14 Oeste 24 Sudoeste 0 -- -- 73
2019-07-28 21:00:00 24.7 30 Sudeste 42 Sudeste 0 -- -- 69
2019-07-28 20:00:00 24.4 24 Sur 31 Sur 0 -- -- 77
2019-07-28 19:00:00 24.5 21 Sur 26 Sur 0 -- -- 82
2019-07-28 18:00:00 23.7 17 Este 25 Este 1.2 -- -- 89
2019-07-28 17:00:00 23.5 8 Sudeste 25 Este 3.3 -- -- 85
2019-07-28 16:00:00 23 21 Sudeste 32 Sur 1.1 -- -- 91
2019-07-28 15:00:00 25.8 21 Sudeste 28 Sudeste 0 -- -- 69
2019-07-28 14:00:00 27.8 18 Sudeste 22 Sudeste 0 -- -- 67
2019-07-28 13:00:00 25.3 11 Sudeste 17 Sudeste 1.3 -- -- 80
2019-07-28 12:00:00 26.2 12 Sudeste 21 Sur 0 -- -- 71
2019-07-28 11:00:00 28 13 Sudeste 21 Sur 0 -- -- 59
2019-07-28 10:00:00 26.6 18 Sudeste 23 Sudeste 0 -- -- 65
2019-07-28 09:00:00 25.9 16 Sudeste 30 Sudeste 0 -- -- 66
2019-07-28 08:00:00 24.9 18 Sudeste 24 Sudeste 0 -- -- 71
2019-07-28 07:00:00 23.5 8 Sudeste 18 Este 0 -- -- 73
2019-07-28 06:00:00 23.3 15 Este 27 Nordeste 0 -- -- 79
2019-07-28 05:00:00 23.1 13 Nordeste 32 Nordeste 0 -- -- 82
2019-07-28 04:00:00 22.4 24 Nordeste 38 Nordeste 0 -- -- 88
2019-07-28 03:00:00 22.8 25 Nordeste 50 Nordeste 0 -- -- 89
2019-07-28 02:00:00 23.8 29 Norte 50 Norte 0 -- -- 85
2019-07-28 01:00:00 25.2 22 Norte 33 Norte 0 -- -- 84
2019-07-28 00:00:00 25.6 12 Noroeste 19 Noroeste 0 -- -- 81
2019-07-27 23:00:00 25.8 10 Norte 22 Noroeste 0 -- -- 76
2019-07-26 12:00:00 30.4 21 Sur 24 Sur 0 -- -- 67
2019-07-26 11:00:00 30 16 Sur 19 Sur 0 -- -- 70
2019-07-26 10:00:00 29.5 13 Sur 17 Sudeste 0 -- -- 75
2019-07-26 09:00:00 28.8 10 Sudeste 13 Sudeste 0 -- -- 78
2019-07-26 08:00:00 27.6 2 Este 9 Este 0 -- -- 83
2019-07-26 07:00:00 25.5 4 Sudeste 12 Sudeste 0 -- -- 91
2019-07-26 06:00:00 25.2 4 Sur 10 Sur 0 -- -- 89
2019-07-26 05:00:00 25.3 6 Sur 10 Sur 0 -- -- 89
2019-07-26 04:00:00 25.4 7 Sur 9 Sur 0 -- -- 87
2019-07-26 03:00:00 25.3 4 Sur 7 Sur 0 -- -- 85
2019-07-26 02:00:00 25.4 0 Calma 6 Sur 0 -- -- 85
2019-07-26 01:00:00 25.7 4 Sudoeste 16 Sur 0 -- -- 83
2019-07-26 00:00:00 26.1 9 Sur 17 Sur 0 -- -- 83